Terminal Aerodrome Forecast
Issued by NWS

Home | Current Version | Previous Version | Graphics & Text | Print | Product List | Glossary On
Versions: 1 2 3 4 5 6 7 8 9 10 11 12 13 14 15 16 17 18
000
FTUS43 KICT 051457 AAA
TAFCNU
TAF AMD
KCNU 051457Z 0515/0612 17009KT P6SM SCT050 BKN100
     FM052100 17017KT P6SM BKN080
     FM060200 18013KT P6SM SCT080 BKN250=

USA.gov is the U.S. government's official web portal to all federal, state and local government web resources and services.